.
WxDataArchive / Data Records for 2009-08-07
2009-08-06 August 2009 2009-08-08

Data Records for Friday, 07 August 2009

Time	Temp	Chill	HIndex	Humid	Dewpt	 Wind 	HiWind	WindDir	Rain 	Barom 
-----	----	-----	------	-----	-----	------	------	-------	-----	----- 
00:00	65.5	65.5	65.5	60	51.2	0	0	---	0.00	30.113 
00:05	65.0	65.0	65.0	62	51.7	0	0	---	0.00	30.113 
00:10	64.7	64.7	64.7	62	51.4	0	0	---	0.00	30.113 
00:15	64.3	64.3	64.3	62	51.0	0	0	---	0.00	30.119 
00:20	64.0	64.0	64.0	62	50.7	0	0	---	0.00	30.119 
00:25	63.7	63.7	63.7	63	50.9	0	0	---	0.00	30.119 
00:30	63.4	63.4	63.4	64	51.0	0	0	---	0.00	30.118 
00:35	63.1	63.1	63.1	65	51.1	0	0	---	0.00	30.118 
00:40	62.7	62.7	62.7	65	50.8	0	0	---	0.00	30.118 
00:45	62.4	62.4	62.4	66	50.9	0	0	---	0.00	30.119 
00:50	62.1	62.1	62.1	68	51.4	0	0	---	0.00	30.119 
00:55	61.8	61.8	61.8	69	51.5	0	0	---	0.00	30.119 
01:00	61.5	61.5	61.5	69	51.2	0	0	---	0.00	30.119 
01:05	61.2	61.2	61.2	70	51.3	0	0	---	0.00	30.119 
01:10	61.0	61.0	61.0	71	51.5	0	0	---	0.00	30.119 
01:15	60.7	60.7	60.7	72	51.6	0	0	---	0.00	30.121 
01:20	60.5	60.5	60.5	72	51.4	0	0	---	0.00	30.121 
01:25	60.2	60.2	60.2	73	51.5	0	0	---	0.00	30.121 
01:30	60.1	60.1	60.1	74	51.8	0	0	---	0.00	30.123 
01:35	59.9	59.9	59.9	74	51.6	0	0	---	0.00	30.123 
01:40	59.6	59.6	59.6	75	51.7	0	0	---	0.00	30.123 
01:45	59.5	59.5	59.5	76	51.9	0	0	---	0.00	30.124 
01:50	59.3	59.3	59.3	77	52.1	0	0	---	0.00	30.124 
01:55	59.2	59.2	59.2	77	52.0	0	0	---	0.00	30.124 
02:00	59.0	59.0	59.0	78	52.1	0	0	---	0.00	30.125 
02:05	59.0	59.0	59.0	78	52.1	0	0	---	0.00	30.125 
02:10	58.9	58.9	58.9	78	52.0	0	0	---	0.00	30.125 
02:15	58.9	58.9	58.9	79	52.4	0	0	---	0.00	30.123 
02:20	58.7	58.7	58.7	79	52.2	0	0	---	0.00	30.123 
02:25	58.6	58.6	58.6	79	52.1	0	0	---	0.00	30.123 
02:30	58.6	58.6	58.6	80	52.4	0	0	---	0.00	30.118 
02:35	58.4	58.4	58.4	80	52.3	0	0	---	0.00	30.118 
02:40	58.4	58.4	58.4	81	52.6	0	0	---	0.00	30.118 
02:45	58.3	58.3	58.3	81	52.5	0	0	---	0.00	30.116 
02:50	58.1	58.1	58.1	81	52.3	0	0	---	0.00	30.116 
02:55	58.0	58.0	58.0	81	52.2	0	0	---	0.00	30.116 
03:00	57.6	57.6	57.6	82	52.1	0	0	---	0.00	30.121 
03:05	57.5	57.5	57.5	82	52.0	0	0	---	0.00	30.121 
03:10	57.3	57.3	57.3	83	52.2	0	0	---	0.00	30.121 
03:15	57.2	57.2	57.2	83	52.1	0	0	---	0.00	30.126 
03:20	56.9	56.9	56.9	84	52.1	0	0	---	0.00	30.126 
03:25	56.7	56.7	56.7	84	51.9	0	0	---	0.00	30.126 
03:30	56.6	56.6	56.6	84	51.8	0	0	---	0.00	30.125 
03:35	56.5	56.5	56.5	85	52.0	0	0	---	0.00	30.125 
03:40	56.3	56.3	56.3	85	51.8	0	0	---	0.00	30.125 
03:45	56.2	56.2	56.2	86	52.1	0	0	---	0.00	30.124 
03:50	56.0	56.0	56.0	86	51.9	0	0	---	0.00	30.124 
03:55	55.9	55.9	55.9	86	51.8	0	0	---	0.00	30.124 
04:00	55.9	55.9	55.9	87	52.1	0	0	---	0.00	30.125 
04:05	55.7	55.7	55.7	87	51.9	0	0	---	0.00	30.125 
04:10	55.7	55.7	55.7	87	51.9	0	0	---	0.00	30.125 
04:15	55.6	55.6	55.6	88	52.1	0	0	---	0.00	30.129 
04:20	55.6	55.6	55.6	88	52.1	0	0	---	0.00	30.129 
04:25	55.4	55.4	55.4	88	51.9	0	0	---	0.00	30.129 
04:30	55.4	55.4	55.4	88	51.9	0	0	---	0.00	30.135 
04:35	55.4	55.4	55.4	88	51.9	0	0	---	0.00	30.135 
04:40	55.4	55.4	55.4	89	52.2	0	0	---	0.00	30.135 
04:45	55.4	55.4	55.4	89	52.2	0	0	---	0.00	30.141 
04:50	55.3	55.3	55.3	89	52.1	0	0	---	0.00	30.141 
04:55	55.3	55.3	55.3	89	52.1	0	0	---	0.00	30.141 
05:00	55.1	55.1	55.1	89	51.9	0	0	---	0.00	30.140 
05:05	55.0	55.0	55.0	89	51.8	0	0	---	0.00	30.140 
05:10	54.8	54.8	54.8	90	51.9	0	0	---	0.00	30.140 
05:15	54.8	54.8	54.8	90	51.9	0	0	---	0.00	30.146 
05:20	54.7	54.7	54.7	90	51.8	0	0	---	0.00	30.146 
05:25	54.5	54.5	54.5	90	51.6	0	0	---	0.00	30.146 
05:30	54.4	54.4	54.4	90	51.5	0	0	---	0.00	30.151 
05:35	54.2	54.2	54.2	90	51.3	0	0	---	0.00	30.151 
05:40	54.2	54.2	54.2	91	51.6	0	0	---	0.00	30.151 
05:45	54.1	54.1	54.1	91	51.5	0	0	---	0.00	30.155 
05:50	54.1	54.1	54.1	91	51.5	0	0	---	0.00	30.155 
05:55	54.1	54.1	54.1	91	51.5	0	0	---	0.00	30.155 
06:00	54.1	54.1	54.1	91	51.5	0	0	---	0.00	30.165 
06:05	54.1	54.1	54.1	91	51.5	0	0	---	0.00	30.165 
06:10	54.2	54.2	54.2	92	51.9	0	0	---	0.00	30.165 
06:15	54.2	54.2	54.2	92	51.9	0	0	---	0.00	30.168 
06:20	54.2	54.2	54.2	92	51.9	0	0	---	0.00	30.168 
06:25	54.4	54.4	54.4	92	52.1	0	0	---	0.00	30.168 
06:30	54.7	54.7	54.7	92	52.4	0	0	---	0.00	30.167 
06:35	54.7	54.7	54.7	91	52.1	0	0	---	0.00	30.167 
06:40	54.8	54.8	54.8	91	52.2	0	0	---	0.00	30.167 
06:45	55.0	55.0	55.0	91	52.4	0	0	---	0.00	30.167 
06:50	55.1	55.1	55.1	91	52.5	0	0	---	0.00	30.167 
06:55	55.1	55.1	55.1	90	52.2	0	0	---	0.00	30.167 
07:00	55.3	55.3	55.3	91	52.7	0	0	---	0.00	30.177 
07:05	55.4	55.4	55.4	90	52.5	0	0	---	0.00	30.177 
07:10	55.6	55.6	55.6	90	52.7	0	0	---	0.00	30.177 
07:15	55.9	55.9	55.9	90	53.0	0	0	---	0.00	30.176 
07:20	56.0	56.0	56.0	90	53.1	0	0	---	0.00	30.176 
07:25	56.2	56.2	56.2	90	53.3	0	0	---	0.00	30.176 
07:30	56.5	56.5	56.5	89	53.3	0	0	---	0.00	30.178 
07:35	56.6	56.6	56.6	89	53.4	0	0	---	0.00	30.178 
07:40	56.9	56.9	56.9	89	53.7	0	0	---	0.00	30.178 
07:45	57.5	57.5	57.5	89	54.3	0	0	---	0.00	30.170 
07:50	58.0	58.0	58.0	89	54.8	0	0	---	0.00	30.170 
07:55	58.6	58.6	58.6	88	55.1	0	0	---	0.00	30.170 
08:00	59.0	59.0	59.0	86	54.8	0	0	---	0.00	30.173 
08:05	59.5	59.5	59.5	86	55.3	0	0	---	0.00	30.173 
08:10	60.2	60.2	60.2	83	55.0	0	0	---	0.00	30.173 
08:15	61.3	61.3	61.3	78	54.4	0	3	270	0.00	30.181 
08:20	62.3	62.3	62.3	75	54.3	0	1	270	0.00	30.181 
08:25	62.7	62.7	62.7	73	53.9	0	1	270	0.00	30.181 
08:30	62.9	62.9	62.9	71	53.3	0	1	270	0.00	30.182 
08:35	63.1	63.1	63.1	72	53.9	0	1	270	0.00	30.182 
08:40	63.2	63.2	63.2	72	54.0	0	2	270	0.00	30.182 
08:45	63.2	63.2	63.2	72	54.0	0	2	270	0.00	30.185 
08:50	63.2	63.2	63.2	72	54.0	0	2	270	0.00	30.185 
08:55	63.1	63.1	63.1	72	53.9	0	2	270	0.00	30.185 
09:00	63.1	63.1	63.1	73	54.3	0	2	270	0.00	30.189 
09:05	63.1	63.1	63.1	72	53.9	0	1	270	0.00	30.189 
09:10	63.2	63.2	63.2	71	53.6	0	2	270	0.00	30.189 
09:15	63.4	63.4	63.4	72	54.2	0	1	270	0.00	30.194 
09:20	63.4	63.4	63.4	70	53.4	0	1	315	0.00	30.194 
09:25	63.5	63.5	63.5	70	53.5	0	2	315	0.00	30.194 
09:30	63.7	63.7	63.7	70	53.7	0	1	315	0.00	30.196 
09:35	63.9	63.9	63.9	70	53.9	1	2	315	0.00	30.196 
09:40	64.0	64.0	64.0	68	53.2	1	4	0	0.00	30.196 
09:45	64.2	64.2	64.2	68	53.4	0	2	22	0.00	30.196 
09:50	64.5	64.5	64.5	68	53.7	0	3	22	0.00	30.196 
09:55	64.8	64.8	64.8	68	54.0	0	2	22	0.00	30.196 
10:00	65.2	65.2	65.2	69	54.8	0	2	22	0.00	30.190 
10:05	65.5	65.5	65.5	68	54.7	1	3	22	0.00	30.190 
10:10	65.8	65.8	65.8	67	54.5	1	3	45	0.00	30.190 
10:15	66.1	66.1	66.1	67	54.8	0	2	45	0.00	30.192 
10:20	66.6	66.6	66.6	65	54.5	1	3	68	0.00	30.192 
10:25	66.9	66.9	66.9	65	54.7	1	3	68	0.00	30.192 
10:30	67.3	67.3	67.3	66	55.5	1	3	112	0.00	30.196 
10:35	67.8	67.8	67.8	63	54.7	1	2	112	0.00	30.196 
10:40	68.3	68.3	68.3	63	55.2	1	4	135	0.00	30.196 
10:45	68.6	68.6	68.6	63	55.5	1	3	112	0.00	30.191 
10:50	68.8	68.8	68.8	62	55.2	1	2	112	0.00	30.191 
10:55	68.9	68.9	68.9	62	55.3	1	3	112	0.00	30.191 
11:00	69.1	69.1	69.1	61	55.1	1	3	90	0.00	30.182 
11:05	69.3	69.3	69.3	62	55.7	0	1	90	0.00	30.182 
11:10	69.4	69.4	69.4	62	55.8	0	2	90	0.00	30.182 
11:15	69.6	69.6	69.6	59	54.6	1	2	90	0.00	30.190 
11:20	69.9	69.9	69.9	59	54.9	1	3	90	0.00	30.190 
11:25	70.3	70.3	70.3	61	56.2	0	2	112	0.00	30.190 
11:30	70.6	70.6	70.6	60	56.0	1	4	112	0.00	30.191 
11:35	70.8	70.8	70.8	62	57.1	2	4	90	0.00	30.191 
11:40	71.1	71.1	71.1	58	55.6	1	3	112	0.00	30.191 
11:45	71.6	71.6	71.6	57	55.5	1	4	112	0.00	30.181 
11:50	72.3	72.3	72.3	56	55.7	1	3	90	0.00	30.181 
11:55	72.7	72.7	72.7	59	57.5	0	2	112	0.00	30.181 
12:00	72.8	72.8	72.8	57	56.7	1	3	112	0.00	30.185 
12:05	73.0	73.0	73.0	58	57.3	1	3	112	0.00	30.185 
12:10	73.2	73.2	73.2	57	57.0	1	3	112	0.00	30.185 
12:15	73.5	73.5	73.5	55	56.3	1	3	112	0.00	30.181 
12:20	73.9	73.9	73.9	53	55.7	1	4	90	0.00	30.181 
12:25	74.0	74.0	74.0	55	56.8	1	4	90	0.00	30.181 
12:30	74.0	74.0	74.0	56	57.3	1	4	112	0.00	30.177 
12:35	74.6	74.6	74.6	58	58.8	1	4	112	0.00	30.177 
12:40	74.9	74.9	74.9	54	57.1	1	3	112	0.00	30.177 
12:45	75.1	75.1	77.6	53	56.8	1	3	68	0.00	30.178 
12:50	75.3	75.3	77.7	53	57.0	1	3	112	0.00	30.178 
12:55	75.6	75.6	77.9	51	56.2	1	4	68	0.00	30.178 
13:00	75.6	75.6	77.8	46	53.3	1	3	112	0.00	30.173 
13:05	75.4	75.4	77.8	46	53.2	1	4	112	0.00	30.173 
13:10	75.4	75.4	77.8	48	54.3	1	3	112	0.00	30.173 
13:15	75.4	75.4	77.8	47	53.7	0	2	112	0.00	30.169 
13:20	75.6	75.6	77.9	47	53.9	1	3	112	0.00	30.169 
13:25	75.6	75.6	77.9	51	56.2	1	5	112	0.00	30.169 
13:30	75.8	75.8	78.0	48	54.7	1	6	90	0.00	30.167 
13:35	76.1	76.1	78.0	46	53.8	1	6	135	0.00	30.167 
13:40	76.5	76.5	78.3	49	55.9	1	3	68	0.00	30.167 
13:45	76.7	76.7	78.2	42	51.9	2	5	68	0.00	30.168 
13:50	76.8	76.8	78.4	46	54.4	1	4	68	0.00	30.168 
13:55	77.4	77.4	78.7	46	55.0	0	2	270	0.00	30.168 
14:00	77.4	77.4	78.6	45	54.4	1	3	270	0.00	30.170 
14:05	77.6	77.6	78.8	47	55.8	0	2	270	0.00	30.170 
14:10	77.7	77.7	78.7	42	52.8	1	4	270	0.00	30.170 
14:15	77.7	77.7	78.6	40	51.4	1	3	22	0.00	30.173 
14:20	77.9	77.9	78.8	42	52.9	0	2	22	0.00	30.173 
14:25	78.1	78.1	78.8	40	51.8	1	3	22	0.00	30.173 
14:30	77.9	77.9	78.6	39	50.9	1	2	22	0.00	30.176 
14:35	77.6	77.6	78.5	39	50.7	1	4	292	0.00	30.176 
14:40	77.4	77.4	78.3	38	49.8	0	2	22	0.00	30.176 
14:45	77.4	77.4	78.4	39	50.5	1	2	22	0.00	30.169 
14:50	77.6	77.6	78.5	39	50.7	1	3	135	0.00	30.169 
14:55	77.4	77.4	78.4	39	50.5	1	3	90	0.00	30.169 
15:00	77.4	77.4	78.5	41	51.8	1	4	90	0.00	30.166 
15:05	77.4	77.4	78.4	39	50.5	1	3	90	0.00	30.166 
15:10	77.4	77.4	78.3	37	49.1	1	3	135	0.00	30.166 
15:15	77.2	77.2	78.3	39	50.3	0	3	90	0.00	30.166 
15:20	77.0	77.0	78.2	40	50.8	1	3	112	0.00	30.166 
15:25	76.8	76.8	78.2	42	51.9	1	3	112	0.00	30.166 
15:30	76.7	76.7	78.1	40	50.5	1	4	158	0.00	30.167 
15:35	76.5	76.5	78.1	41	51.0	1	3	90	0.00	30.167 
15:40	76.5	76.5	78.2	44	52.9	0	1	90	0.00	30.167 
15:45	76.5	76.5	78.2	46	54.2	0	1	90	0.00	30.166 
15:50	76.5	76.5	78.3	48	55.3	0	1	90	0.00	30.166 
15:55	76.5	76.5	78.2	46	54.2	1	2	90	0.00	30.166 
16:00	76.3	76.3	78.2	48	55.1	0	2	90	0.00	30.168 
16:05	76.0	76.0	78.0	47	54.3	0	2	270	0.00	30.168 
16:10	75.8	75.8	77.9	47	54.1	0	1	270	0.00	30.168 
16:15	75.6	75.6	77.9	50	55.6	0	2	270	0.00	30.177 
16:20	75.6	75.6	77.9	49	55.1	0	1	270	0.00	30.177 
16:25	75.3	75.3	77.7	49	54.8	0	2	270	0.00	30.177 
16:30	75.1	75.1	77.7	50	55.2	0	1	270	0.00	30.183 
16:35	74.7	74.7	74.7	50	54.8	0	1	270	0.00	30.183 
16:40	74.4	74.4	74.4	52	55.6	0	1	270	0.00	30.183 
16:45	74.4	74.4	74.4	51	55.1	0	1	270	0.00	30.186 
16:50	74.4	74.4	74.4	50	54.5	0	1	270	0.00	30.186 
16:55	74.4	74.4	74.4	47	52.8	0	1	270	0.00	30.186 
17:00	74.6	74.6	74.6	50	54.7	0	1	270	0.00	30.182 
17:05	74.6	74.6	74.6	49	54.2	0	0	---	0.00	30.182 
17:10	74.7	74.7	74.7	50	54.8	0	1	270	0.00	30.182 
17:15	74.7	74.7	74.7	46	52.5	0	1	270	0.00	30.173 
17:20	74.7	74.7	74.7	45	51.9	0	1	270	0.00	30.173 
17:25	74.9	74.9	74.9	47	53.3	0	0	---	0.00	30.173 
17:30	74.7	74.7	74.7	48	53.7	0	0	---	0.00	30.173 
17:35	74.7	74.7	74.7	48	53.7	0	0	---	0.00	30.173 
17:40	74.7	74.7	74.7	48	53.7	0	0	---	0.00	30.173 
17:45	74.7	74.7	74.7	50	54.8	0	1	270	0.00	30.168 
17:50	74.6	74.6	74.6	49	54.2	0	1	270	0.00	30.168 
17:55	74.6	74.6	74.6	52	55.8	0	0	---	0.00	30.168 
18:00	74.4	74.4	74.4	53	56.1	0	0	---	0.00	30.169 
18:05	74.2	74.2	74.2	54	56.5	0	0	---	0.00	30.169 
18:10	74.0	74.0	74.0	55	56.8	0	0	---	0.00	30.169 
18:15	73.9	73.9	73.9	56	57.2	0	0	---	0.00	30.169 
18:20	73.5	73.5	73.5	57	57.3	0	0	---	0.00	30.169 
18:25	73.3	73.3	73.3	60	58.6	0	0	---	0.00	30.169 
18:30	73.2	73.2	73.2	60	58.5	0	0	---	0.00	30.167 
18:35	73.0	73.0	73.0	59	57.8	0	1	270	0.00	30.167 
18:40	72.7	72.7	72.7	61	58.5	0	1	270	0.00	30.167 
18:45	72.5	72.5	72.5	62	58.7	0	1	270	0.00	30.162 
18:50	72.3	72.3	72.3	64	59.4	0	0	---	0.00	30.162 
18:55	72.0	72.0	72.0	66	60.0	0	0	---	0.00	30.162 
19:00	71.8	71.8	71.8	69	61.1	0	0	---	0.00	30.156 
19:05	71.3	71.3	71.3	69	60.6	0	0	---	0.00	30.156 
19:10	70.6	70.6	70.6	71	60.7	0	0	---	0.01	30.156 
19:15	69.8	69.8	69.8	72	60.4	0	0	---	0.00	30.163 
19:20	69.1	69.1	69.1	74	60.5	0	0	---	0.00	30.163 
19:25	68.8	68.8	68.8	77	61.3	0	0	---	0.00	30.163 
19:30	68.6	68.6	68.6	81	62.5	0	0	---	0.01	30.153 
19:35	68.4	68.4	68.4	82	62.7	0	0	---	0.00	30.153 
19:40	68.1	68.1	68.1	84	63.1	0	0	---	0.00	30.153 
19:45	67.8	67.8	67.8	85	63.1	0	0	---	0.00	30.158 
19:50	67.4	67.4	67.4	85	62.7	0	0	---	0.00	30.158 
19:55	67.3	67.3	67.3	84	62.3	0	0	---	0.00	30.158 
20:00	67.1	67.1	67.1	85	62.4	0	0	---	0.01	30.155 
20:05	67.1	67.1	67.1	85	62.4	0	0	---	0.00	30.155 
20:10	66.9	66.9	66.9	86	62.6	0	0	---	0.00	30.155 
20:15	66.8	66.8	66.8	86	62.5	0	0	---	0.00	30.151 
20:20	66.4	66.4	66.4	86	62.1	0	0	---	0.00	30.151 
20:25	66.3	66.3	66.3	84	61.3	0	1	270	0.00	30.151 
20:30	66.1	66.1	66.1	82	60.4	0	1	270	0.00	30.142 
20:35	66.1	66.1	66.1	81	60.1	0	2	270	0.00	30.142 
20:40	66.3	66.3	66.3	81	60.3	0	1	292	0.00	30.142 
20:45	66.3	66.3	66.3	81	60.3	0	2	292	0.00	30.136 
20:50	66.4	66.4	66.4	81	60.4	0	3	0	0.00	30.136 
20:55	66.4	66.4	66.4	81	60.4	0	1	0	0.00	30.136 
21:00	66.3	66.3	66.3	82	60.6	0	0	---	0.00	30.137 
21:05	66.1	66.1	66.1	82	60.4	0	1	0	0.00	30.137 
21:10	66.0	66.0	66.0	80	59.6	0	1	0	0.00	30.137 
21:15	66.0	66.0	66.0	81	60.0	0	1	0	0.00	30.138 
21:20	66.0	66.0	66.0	81	60.0	0	1	0	0.00	30.138 
21:25	65.8	65.8	65.8	82	60.1	0	0	---	0.00	30.138 
21:30	65.8	65.8	65.8	82	60.1	0	1	0	0.00	30.137 
21:35	65.8	65.8	65.8	82	60.1	0	1	0	0.00	30.137 
21:40	65.8	65.8	65.8	83	60.5	0	0	---	0.00	30.137 
21:45	65.8	65.8	65.8	83	60.5	0	1	0	0.00	30.141 
21:50	65.6	65.6	65.6	82	59.9	0	1	0	0.00	30.141 
21:55	65.6	65.6	65.6	81	59.6	0	2	0	0.00	30.141 
22:00	65.6	65.6	65.6	81	59.6	0	2	0	0.00	30.136 
22:05	65.8	65.8	65.8	81	59.8	1	3	45	0.00	30.136 
22:10	65.8	65.8	65.8	81	59.8	0	1	45	0.00	30.136 
22:15	65.8	65.8	65.8	82	60.1	0	2	45	0.00	30.140 
22:20	66.0	66.0	66.0	84	61.0	0	2	45	0.00	30.140 
22:25	66.1	66.1	66.1	84	61.1	1	2	68	0.00	30.140 
22:30	66.1	66.1	66.1	85	61.5	0	3	68	0.00	30.148 
22:35	66.1	66.1	66.1	85	61.5	0	1	68	0.00	30.148 
22:40	66.1	66.1	66.1	85	61.5	0	4	68	0.00	30.148 
22:45	66.0	66.0	66.0	85	61.4	0	2	68	0.00	30.148 
22:50	66.0	66.0	66.0	85	61.4	0	1	68	0.00	30.148 
22:55	66.0	66.0	66.0	84	61.0	0	2	68	0.00	30.148 
23:00	66.0	66.0	66.0	84	61.0	1	3	68	0.00	30.134 
23:05	66.0	66.0	66.0	84	61.0	1	4	45	0.00	30.134 
23:10	65.8	65.8	65.8	84	60.8	1	3	68	0.00	30.134 
23:15	65.8	65.8	65.8	84	60.8	1	2	68	0.00	30.134 
23:24	65.8	65.8	65.8	84	60.8	0	1	68	0.00	30.134 
23:25	65.6	65.6	65.6	84	60.6	0	0	---	0.00	30.134 
23:30	65.6	65.6	65.6	84	60.6	0	1	68	0.00	30.142 
23:35	65.6	65.6	65.6	84	60.6	0	1	68	0.00	30.142 
23:40	65.6	65.6	65.6	84	60.6	0	1	68	0.00	30.142 
23:45	65.5	65.5	65.5	84	60.5	0	0	---	0.00	30.138 
23:50	65.5	65.5	65.5	84	60.5	0	1	68	0.00	30.138 
23:55	65.5	65.5	65.5	83	60.2	0	1	68	0.00	30.138 

CoCoRaHS
IN-AL-39
A2 Web Hosting
Creative Commons License
GoDaddy
search engine by freefind advanced

loaded 2018-11-20 08:13:24 • last modified 2010-11-18 10:43:29
Privacy PolicyDisclaimer
• wx.awcolley.com is powered by PmWiki v.2002016 •
• all content (unless otherwise noted) © 2018 A W Colley